Lost Creek, Pennsylvania
Current Conditions -  °F | °C
As of 9:55 PM on Wednesday 22 Oct 2014 (Local Time) from KHZL Reporting Station
Drizzle Drizzle  
Wind Chill: 40°   Ceiling: 700
Heat Index: 46°   Visibility: 10mi
Dew Point: 45°   Wind: 14mph
Humidity: 93%   Direction: 320°NW
Pressure: 29.95"   Gusts: 24mph
Location:  40.81°N, 76.25°W
Report Text: KHZL 230155Z AUTO 32012G21KT 290V350 10SM -DZ OVC007 08/07 A2995 RMK AO2
Loading
Personal Weather Stations






























Interactive Weather Map
Tropical Storm Tracking
New forecast layout! Learn more

10-Day Weather Forecast

Advertisements
Track Severe Weather on mobile